createdAt,value
2023-04-26T00:00:32.278Z,99379.66
2023-04-26T00:02:59.427Z,99387.41
2023-04-26T00:05:26.573Z,99391.06
2023-04-26T00:07:53.301Z,99394.69
2023-04-26T00:10:20.029Z,99395.13
2023-04-26T00:12:46.636Z,99394.53
2023-04-26T00:15:14.766Z,99398.03
2023-04-26T00:17:41.387Z,99395.81
2023-04-26T00:20:08.411Z,99395.19
2023-04-26T00:22:35.141Z,99408.69
2023-04-26T00:25:02.001Z,99408.50
2023-04-26T00:27:28.643Z,99403.59
2023-04-26T00:29:55.366Z,99415.66
2023-04-26T00:32:22.049Z,99418.44
2023-04-26T00:34:48.883Z,99421.38
2023-04-26T00:37:15.584Z,99423.53
2023-04-26T00:39:42.222Z,99430.06
2023-04-26T00:42:09.018Z,99431.00
2023-04-26T00:44:35.623Z,99435.91
2023-04-26T00:47:02.564Z,99425.59
2023-04-26T00:49:29.265Z,99429.78
2023-04-26T00:51:56.086Z,99432.84
2023-04-26T00:54:22.854Z,99438.47
2023-04-26T00:56:49.553Z,99437.25
2023-04-26T00:59:16.390Z,99437.53
2023-04-26T01:01:43.179Z,99441.28
2023-04-26T01:04:10.077Z,99438.25
2023-04-26T01:06:37.077Z,99434.28
2023-04-26T01:09:05.224Z,99439.84
2023-04-26T01:11:33.187Z,99445.13
2023-04-26T01:13:59.842Z,99441.94
2023-04-26T01:16:28.162Z,99444.13
2023-04-26T01:18:55.042Z,99445.03
2023-04-26T01:21:22.768Z,99454.69
2023-04-26T01:23:50.413Z,99450.53
2023-04-26T01:26:17.819Z,99455.13
2023-04-26T01:28:45.133Z,99456.16
2023-04-26T01:31:12.742Z,99463.72
2023-04-26T01:33:39.433Z,99464.41
2023-04-26T01:36:10.330Z,99470.75
2023-04-26T01:38:37.124Z,99473.97
2023-04-26T01:41:04.518Z,99475.91
2023-04-26T01:43:31.330Z,99474.44
2023-04-26T01:45:58.157Z,99477.84
2023-04-26T01:48:24.816Z,99474.06
2023-04-26T01:50:51.430Z,99484.94
2023-04-26T01:53:18.146Z,99477.25
2023-04-26T01:55:44.800Z,99488.63
2023-04-26T01:58:11.400Z,99488.44
2023-04-26T02:00:38.083Z,99489.22
2023-04-26T02:03:04.787Z,99493.59
2023-04-26T02:05:31.602Z,99496.13
2023-04-26T02:07:58.361Z,99495.41
2023-04-26T02:10:24.951Z,99489.50
2023-04-26T02:12:51.672Z,99492.34
2023-04-26T02:15:18.312Z,99495.63
2023-04-26T02:17:45.046Z,99497.56
2023-04-26T02:20:12.172Z,99500.81
2023-04-26T02:22:38.809Z,99499.31
2023-04-26T02:25:05.936Z,99498.38
2023-04-26T02:27:32.521Z,99502.41
2023-04-26T02:29:59.575Z,99499.03
2023-04-26T02:32:26.434Z,99503.28
2023-04-26T02:34:53.111Z,99504.59
2023-04-26T02:37:19.948Z,99497.13
2023-04-26T02:39:50.197Z,99495.88
2023-04-26T02:42:17.498Z,99498.78
2023-04-26T02:44:45.362Z,99497.72
2023-04-26T02:47:11.968Z,99492.09
2023-04-26T02:49:38.618Z,99500.22
2023-04-26T02:52:05.351Z,99501.59
2023-04-26T02:54:31.992Z,99510.69
2023-04-26T02:56:58.701Z,99507.63
2023-04-26T02:59:25.552Z,99510.75
2023-04-26T03:01:52.260Z,99512.00
2023-04-26T03:04:19.042Z,99511.78
2023-04-26T03:06:45.737Z,99516.50
2023-04-26T03:09:12.393Z,99511.81
2023-04-26T03:11:38.995Z,99533.59
2023-04-26T03:14:05.626Z,99528.78
2023-04-26T03:16:41.390Z,99531.09
2023-04-26T03:19:08.336Z,99537.19
2023-04-26T03:21:35.096Z,99547.69
2023-04-26T03:24:01.951Z,99545.22
2023-04-26T03:26:28.622Z,99547.66
2023-04-26T03:28:55.247Z,99554.66
2023-04-26T03:31:21.904Z,99553.06
2023-04-26T03:33:48.724Z,99560.00
2023-04-26T03:36:15.566Z,99558.63
2023-04-26T03:38:42.259Z,99564.53
2023-04-26T03:41:08.970Z,99572.84
2023-04-26T03:43:35.626Z,99568.63
2023-04-26T03:46:02.342Z,99572.13
2023-04-26T03:48:29.090Z,99568.88
2023-04-26T03:50:55.862Z,99576.31
2023-04-26T03:53:22.551Z,99581.41
2023-04-26T03:55:49.162Z,99578.59
2023-04-26T03:58:15.803Z,99582.94
2023-04-26T04:00:42.507Z,99580.50
2023-04-26T04:03:09.797Z,99586.53
2023-04-26T04:05:36.659Z,99590.88
2023-04-26T04:08:03.849Z,99593.75
2023-04-26T04:10:30.600Z,99599.84
2023-04-26T04:12:57.336Z,99595.75
2023-04-26T04:15:24.040Z,99599.06
2023-04-26T04:17:50.979Z,99604.00
2023-04-26T04:20:18.044Z,99598.50
2023-04-26T04:22:44.797Z,99596.84
2023-04-26T04:25:11.416Z,99599.59
2023-04-26T04:27:38.319Z,99602.34
2023-04-26T04:30:06.247Z,99604.13
2023-04-26T04:32:33.058Z,99606.88
2023-04-26T04:35:00.018Z,99612.75
2023-04-26T04:37:26.767Z,99611.38
2023-04-26T04:39:53.735Z,99610.56
2023-04-26T04:42:20.386Z,99607.78
2023-04-26T04:44:47.244Z,99622.78
2023-04-26T04:47:13.922Z,99632.19
2023-04-26T04:49:40.716Z,99628.03
2023-04-26T04:52:07.395Z,99635.53
2023-04-26T04:54:34.187Z,99634.66
2023-04-26T04:57:00.839Z,99636.94
2023-04-26T04:59:28.061Z,99641.81
2023-04-26T05:01:54.815Z,99641.94
2023-04-26T05:04:22.022Z,99648.47
2023-04-26T05:06:49.173Z,99644.97
2023-04-26T05:09:15.837Z,99655.97
2023-04-26T05:11:42.494Z,99656.59
2023-04-26T05:14:09.312Z,99665.50
2023-04-26T05:16:36.028Z,99669.53
2023-04-26T05:19:02.705Z,99670.50
2023-04-26T05:21:29.317Z,99656.47
2023-04-26T05:23:55.994Z,99667.03
2023-04-26T05:26:22.836Z,99668.22
2023-04-26T05:28:49.505Z,99669.03
2023-04-26T05:31:16.429Z,99674.75
2023-04-26T05:33:43.116Z,99676.38
2023-04-26T05:36:09.947Z,99678.19
2023-04-26T05:38:36.675Z,99681.03
2023-04-26T05:41:03.521Z,99684.28
2023-04-26T05:43:30.151Z,99685.94
2023-04-26T05:45:57.338Z,99687.41
2023-04-26T05:48:25.224Z,99682.84
2023-04-26T05:50:52.606Z,99684.53
2023-04-26T05:53:20.016Z,99686.34
2023-04-26T05:55:46.964Z,99696.56
2023-04-26T05:58:13.892Z,99693.09
2023-04-26T06:00:40.902Z,99698.84
2023-04-26T06:03:07.976Z,99693.28
2023-04-26T06:05:36.934Z,99702.72
2023-04-26T06:08:03.753Z,99697.22
2023-04-26T06:10:30.420Z,99694.72
2023-04-26T06:12:57.078Z,99691.72
2023-04-26T06:15:23.757Z,99693.66
2023-04-26T06:17:50.551Z,99703.31
2023-04-26T06:20:17.220Z,99695.03
2023-04-26T06:22:43.976Z,99704.09
2023-04-26T06:25:10.747Z,99710.69
2023-04-26T06:27:37.402Z,99708.72
2023-04-26T06:30:05.142Z,99704.66
2023-04-26T06:32:33.213Z,99710.56
2023-04-26T06:35:00.041Z,99705.19
2023-04-26T06:37:26.670Z,99712.38
2023-04-26T06:39:53.324Z,99715.66
2023-04-26T06:42:20.253Z,99708.19
2023-04-26T06:44:46.967Z,99707.47
2023-04-26T06:47:13.872Z,99707.09
2023-04-26T06:49:40.509Z,99703.31
2023-04-26T06:52:09.036Z,99701.78
2023-04-26T06:54:39.996Z,99710.38
2023-04-26T06:57:13.170Z,99705.84
2023-04-26T06:59:39.788Z,99715.28
2023-04-26T07:02:06.816Z,99711.34
2023-04-26T07:04:33.612Z,99717.25
2023-04-26T07:07:00.710Z,99706.09
2023-04-26T07:09:27.476Z,99715.78
2023-04-26T07:11:54.119Z,99719.22
2023-04-26T07:14:20.871Z,99721.22
2023-04-26T07:16:47.601Z,99724.13
2023-04-26T07:19:14.507Z,99726.84
2023-04-26T07:21:41.185Z,99743.19
2023-04-26T07:24:07.945Z,99740.88
2023-04-26T07:26:35.675Z,99754.31
2023-04-26T07:29:02.576Z,99748.81
2023-04-26T07:31:30.699Z,99744.06
2023-04-26T07:33:57.750Z,99752.91
2023-04-26T07:36:25.144Z,99757.19
2023-04-26T07:38:51.923Z,99752.63
2023-04-26T07:41:18.575Z,99761.59
2023-04-26T07:43:45.319Z,99758.06
2023-04-26T07:46:12.094Z,99759.06
2023-04-26T07:48:38.717Z,99773.44
2023-04-26T07:51:10.308Z,99764.38
2023-04-26T07:53:37.537Z,99771.13
2023-04-26T07:56:04.945Z,99765.94
2023-04-26T07:58:31.650Z,99769.97
2023-04-26T08:00:58.686Z,99770.81
2023-04-26T08:03:25.845Z,99759.13
2023-04-26T08:05:52.656Z,99758.22
2023-04-26T08:08:19.923Z,99761.06
2023-04-26T08:10:46.565Z,99771.13
2023-04-26T08:13:13.243Z,99769.03
2023-04-26T08:15:40.125Z,99772.09
2023-04-26T08:18:06.765Z,99790.66
2023-04-26T08:20:33.391Z,99790.19
2023-04-26T08:23:00.154Z,99795.47
2023-04-26T08:25:26.969Z,99776.81
2023-04-26T08:27:53.583Z,99792.19
2023-04-26T08:30:20.443Z,99798.03
2023-04-26T08:32:47.161Z,99792.31
2023-04-26T08:35:13.930Z,99793.25
2023-04-26T08:37:40.670Z,99789.28
2023-04-26T08:40:08.472Z,99795.63
2023-04-26T08:42:40.167Z,99785.88
2023-04-26T08:45:08.081Z,99803.53
2023-04-26T08:47:45.545Z,99791.56
2023-04-26T08:50:13.150Z,99799.56
2023-04-26T08:52:40.440Z,99801.00
2023-04-26T08:55:09.169Z,99792.34
2023-04-26T08:57:36.684Z,99810.19
2023-04-26T09:00:05.745Z,99805.13
2023-04-26T09:02:32.981Z,99808.44
2023-04-26T09:05:00.248Z,99800.75
2023-04-26T09:07:31.871Z,99813.47
2023-04-26T09:09:59.829Z,99821.47
2023-04-26T09:12:26.523Z,99812.28
2023-04-26T09:14:53.198Z,99806.22
2023-04-26T09:17:32.687Z,99808.16
2023-04-26T09:20:01.160Z,99811.91
2023-04-26T09:22:37.397Z,99803.84
2023-04-26T09:25:05.653Z,99806.69
2023-04-26T09:27:35.170Z,99812.91
2023-04-26T09:30:18.462Z,99802.97
2023-04-26T09:32:51.565Z,99798.25
2023-04-26T09:35:24.365Z,99822.41
2023-04-26T09:38:07.952Z,99814.19
2023-04-26T09:40:49.682Z,99805.91
2023-04-26T09:43:16.422Z,99803.22
2023-04-26T09:45:58.937Z,99801.44
2023-04-26T09:48:27.525Z,99809.34
2023-04-26T09:50:56.088Z,99808.59
2023-04-26T09:53:28.652Z,99818.22
2023-04-26T09:55:56.834Z,99818.66
2023-04-26T09:58:23.932Z,99787.16
2023-04-26T10:00:51.979Z,99803.38
2023-04-26T10:03:19.933Z,99801.16
2023-04-26T10:05:46.983Z,99798.56
2023-04-26T10:08:13.966Z,99804.75
2023-04-26T10:10:41.437Z,99809.53
2023-04-26T10:13:08.604Z,99805.44
2023-04-26T10:15:35.770Z,99804.34
2023-04-26T10:18:02.512Z,99807.94
2023-04-26T10:20:29.924Z,99806.03
2023-04-26T10:22:58.965Z,99802.97
2023-04-26T10:25:35.720Z,99809.94
2023-04-26T10:28:02.583Z,99811.72
2023-04-26T10:30:29.532Z,99806.81
2023-04-26T10:32:56.370Z,99812.09
2023-04-26T10:35:32.447Z,99800.06
2023-04-26T10:38:01.762Z,99807.75
2023-04-26T10:40:37.279Z,99802.72
2023-04-26T10:43:12.853Z,99813.34
2023-04-26T10:45:41.415Z,99807.44
2023-04-26T10:48:13.913Z,99801.47
2023-04-26T10:50:58.878Z,99809.00
2023-04-26T10:53:25.774Z,99801.22
2023-04-26T10:55:52.484Z,99818.97
2023-04-26T10:58:33.355Z,99805.91
2023-04-26T11:01:09.856Z,99805.16
2023-04-26T11:03:36.817Z,99793.94
2023-04-26T11:06:10.367Z,99793.97
2023-04-26T11:08:37.162Z,99798.25
2023-04-26T11:11:03.711Z,99784.75
2023-04-26T11:13:36.030Z,99792.16
2023-04-26T11:16:05.792Z,99802.34
2023-04-26T11:18:33.409Z,99786.25
2023-04-26T11:21:01.113Z,99800.16
2023-04-26T11:23:30.073Z,99784.03
2023-04-26T11:26:00.608Z,99800.69
2023-04-26T11:28:27.252Z,99787.44
2023-04-26T11:30:53.893Z,99793.28
2023-04-26T11:33:21.630Z,99801.69
2023-04-26T11:35:55.784Z,99817.66
2023-04-26T11:38:26.813Z,99811.72
2023-04-26T11:40:56.396Z,99809.50
2023-04-26T11:43:27.698Z,99804.22
2023-04-26T11:45:59.183Z,99821.19
2023-04-26T11:48:26.505Z,99813.09
2023-04-26T11:50:53.706Z,99811.97
2023-04-26T11:53:20.440Z,99811.63
2023-04-26T11:55:47.154Z,99822.19
2023-04-26T11:58:14.953Z,99815.53
2023-04-26T12:00:59.311Z,99813.41
2023-04-26T12:03:33.004Z,99812.13
2023-04-26T12:05:59.921Z,99819.91
2023-04-26T12:08:27.996Z,99819.34
2023-04-26T12:10:54.635Z,99818.31
2023-04-26T12:13:21.451Z,99824.72
2023-04-26T12:15:48.104Z,99819.50
2023-04-26T12:18:15.049Z,99822.38
2023-04-26T12:20:43.329Z,99815.34
2023-04-26T12:23:14.657Z,99820.56
2023-04-26T12:25:52.461Z,99825.13
2023-04-26T12:28:19.279Z,99829.63
2023-04-26T12:30:46.014Z,99821.41
2023-04-26T12:33:17.707Z,99822.75
2023-04-26T12:35:45.985Z,99816.97
2023-04-26T12:38:12.823Z,99818.00
2023-04-26T12:40:39.750Z,99823.44
2023-04-26T12:43:07.047Z,99815.59
2023-04-26T12:45:33.714Z,99827.97
2023-04-26T12:48:00.341Z,99833.41
2023-04-26T12:50:27.150Z,99833.41
2023-04-26T12:52:54.646Z,99828.25
2023-04-26T12:55:23.623Z,99831.81
2023-04-26T12:57:50.386Z,99829.63
2023-04-26T13:00:17.511Z,99825.28
2023-04-26T13:02:44.768Z,99831.47
2023-04-26T13:05:11.607Z,99824.03
2023-04-26T13:07:40.430Z,99825.06
2023-04-26T13:10:07.760Z,99834.91
2023-04-26T13:12:34.728Z,99850.66
2023-04-26T13:15:01.364Z,99847.38
2023-04-26T13:17:28.235Z,99852.84
2023-04-26T13:19:54.956Z,99844.09
2023-04-26T13:22:21.824Z,99836.31
2023-04-26T13:24:48.810Z,99836.41
2023-04-26T13:27:15.504Z,99851.28
2023-04-26T13:29:42.098Z,99851.72
2023-04-26T13:32:08.900Z,99853.69
2023-04-26T13:34:36.132Z,99854.56
2023-04-26T13:37:02.839Z,99865.72
2023-04-26T13:39:29.751Z,99855.72
2023-04-26T13:41:56.480Z,99856.13
2023-04-26T13:44:23.131Z,99857.72
2023-04-26T13:46:49.814Z,99855.38
2023-04-26T13:49:16.428Z,99860.53
2023-04-26T13:51:43.138Z,99848.78
2023-04-26T13:54:09.888Z,99855.16
2023-04-26T13:56:36.559Z,99864.03
2023-04-26T13:59:03.150Z,99860.44
2023-04-26T14:01:30.024Z,99867.00
2023-04-26T14:03:57.225Z,99869.34
2023-04-26T14:06:24.215Z,99870.19
2023-04-26T14:08:50.861Z,99870.97
2023-04-26T14:11:17.608Z,99877.91
2023-04-26T14:13:44.324Z,99882.22
2023-04-26T14:16:10.971Z,99883.59
2023-04-26T14:18:37.725Z,99879.53
2023-04-26T14:21:04.639Z,99888.53
2023-04-26T14:23:31.303Z,99888.56
2023-04-26T14:25:57.961Z,99887.38
2023-04-26T14:28:24.629Z,99891.25
2023-04-26T14:30:51.416Z,99886.94
2023-04-26T14:33:18.170Z,99883.34
2023-04-26T14:35:44.840Z,99883.81
2023-04-26T14:38:11.477Z,99898.19
2023-04-26T14:40:38.078Z,99890.56
2023-04-26T14:43:04.811Z,99887.13
2023-04-26T14:45:43.406Z,99894.19
2023-04-26T14:48:11.337Z,99897.81
2023-04-26T14:50:38.014Z,99906.06
2023-04-26T14:53:04.823Z,99890.59
2023-04-26T14:55:31.686Z,99898.03
2023-04-26T14:57:58.386Z,99894.72
2023-04-26T15:00:25.023Z,99885.31
2023-04-26T15:02:51.891Z,99894.97
2023-04-26T15:05:19.090Z,99892.41
2023-04-26T15:07:45.874Z,99894.19
2023-04-26T15:10:12.493Z,99899.13
2023-04-26T15:12:39.097Z,99900.69
2023-04-26T15:15:06.313Z,99910.91
2023-04-26T15:17:33.628Z,99908.06
2023-04-26T15:20:03.132Z,99912.34
2023-04-26T15:22:29.788Z,99910.16
2023-04-26T15:24:56.362Z,99907.53
2023-04-26T15:27:23.039Z,99912.63
2023-04-26T15:29:49.931Z,99909.78
2023-04-26T15:32:16.632Z,99914.13
2023-04-26T15:34:43.315Z,99915.00
2023-04-26T15:37:10.004Z,99909.38
2023-04-26T15:39:36.714Z,99919.63
2023-04-26T15:42:04.640Z,99919.81
2023-04-26T15:44:32.890Z,99922.72
2023-04-26T15:46:59.968Z,99918.97
2023-04-26T15:49:26.651Z,99916.41
2023-04-26T15:51:53.245Z,99925.75
2023-04-26T15:54:19.961Z,99929.31
2023-04-26T15:56:46.567Z,99922.59
2023-04-26T15:59:13.661Z,99927.19
2023-04-26T16:01:40.525Z,99923.59
2023-04-26T16:04:07.508Z,99924.09
2023-04-26T16:06:34.297Z,99918.75
2023-04-26T16:09:02.045Z,99917.03
2023-04-26T16:11:28.862Z,99927.19
2023-04-26T16:13:55.496Z,99927.63
2023-04-26T16:16:22.195Z,99929.91
2023-04-26T16:18:48.965Z,99933.75
2023-04-26T16:21:15.639Z,99933.06
2023-04-26T16:23:42.264Z,99939.00
2023-04-26T16:26:09.007Z,99933.25
2023-04-26T16:28:35.938Z,99928.84
2023-04-26T16:31:02.810Z,99926.72
2023-04-26T16:33:29.729Z,99929.94
2023-04-26T16:35:56.608Z,99939.78
2023-04-26T16:38:23.952Z,99939.13
2023-04-26T16:40:58.482Z,99939.84
2023-04-26T16:43:26.229Z,99947.41
2023-04-26T16:46:04.294Z,99943.97
2023-04-26T16:48:32.156Z,99955.16
2023-04-26T16:51:00.154Z,99958.34
2023-04-26T16:53:27.140Z,99963.63
2023-04-26T16:55:53.856Z,99960.94
2023-04-26T16:58:20.531Z,99963.66
2023-04-26T17:00:47.376Z,99963.19
2023-04-26T17:03:14.439Z,99964.50
2023-04-26T17:05:45.786Z,99978.38
2023-04-26T17:08:16.265Z,99970.72
2023-04-26T17:10:44.492Z,99982.47
2023-04-26T17:13:11.152Z,99984.38
2023-04-26T17:15:37.772Z,99982.06
2023-04-26T17:18:05.431Z,99981.78
2023-04-26T17:20:33.175Z,99984.28
2023-04-26T17:23:03.645Z,99987.44
2023-04-26T17:25:30.951Z,99990.59
2023-04-26T17:27:57.639Z,99979.06
2023-04-26T17:30:24.443Z,99987.25
2023-04-26T17:32:51.187Z,99990.09
2023-04-26T17:35:17.923Z,99988.78
2023-04-26T17:37:44.547Z,99989.56
2023-04-26T17:40:11.705Z,99999.66
2023-04-26T17:42:38.396Z,99997.84
2023-04-26T17:45:05.613Z,99998.88
2023-04-26T17:47:32.306Z,100003.84
2023-04-26T17:49:59.206Z,100011.56
2023-04-26T17:52:25.979Z,100012.91
2023-04-26T17:54:52.605Z,100021.41
2023-04-26T17:57:19.250Z,100022.47
2023-04-26T17:59:46.068Z,100024.16
2023-04-26T18:02:13.123Z,100030.28
2023-04-26T18:04:40.271Z,100032.53
2023-04-26T18:07:07.052Z,100034.81
2023-04-26T18:09:33.812Z,100037.84
2023-04-26T18:12:00.655Z,100044.69
2023-04-26T18:14:27.264Z,100043.41
2023-04-26T18:16:54.000Z,100042.41
2023-04-26T18:19:20.603Z,100037.06
2023-04-26T18:21:47.637Z,100043.84
2023-04-26T18:24:14.246Z,100040.03
2023-04-26T18:26:41.256Z,100042.97
2023-04-26T18:29:07.883Z,100049.78
2023-04-26T18:31:34.752Z,100049.81
2023-04-26T18:34:01.404Z,100057.53
2023-04-26T18:36:28.050Z,100060.34
2023-04-26T18:38:54.657Z,100065.78
2023-04-26T18:41:21.299Z,100062.00
2023-04-26T18:43:47.940Z,100068.50
2023-04-26T18:46:14.592Z,100073.00
2023-04-26T18:48:41.260Z,100076.50
2023-04-26T18:51:07.867Z,100075.81
2023-04-26T18:53:34.474Z,100085.69
2023-04-26T18:56:01.159Z,100091.03
2023-04-26T18:58:27.871Z,100089.91
2023-04-26T19:00:54.745Z,100093.84
2023-04-26T19:03:21.717Z,100083.91
2023-04-26T19:05:48.701Z,100091.56
2023-04-26T19:08:15.374Z,100091.75
2023-04-26T19:10:42.003Z,100086.13
2023-04-26T19:13:08.682Z,100093.78
2023-04-26T19:15:35.350Z,100092.69
2023-04-26T19:18:02.236Z,100097.84
2023-04-26T19:20:28.970Z,100096.28
2023-04-26T19:22:55.635Z,100105.59
2023-04-26T19:25:24.706Z,100103.53
2023-04-26T19:27:51.395Z,100096.00
2023-04-26T19:30:18.271Z,100103.81
2023-04-26T19:32:44.931Z,100104.56
2023-04-26T19:35:11.607Z,100096.53
2023-04-26T19:37:38.364Z,100106.66
2023-04-26T19:40:05.588Z,100099.84
2023-04-26T19:42:32.208Z,100101.41
2023-04-26T19:44:58.953Z,100103.31
2023-04-26T19:47:25.642Z,100111.03
2023-04-26T19:49:52.343Z,100108.38
2023-04-26T19:52:18.961Z,100106.81
2023-04-26T19:54:45.534Z,100106.94
2023-04-26T19:57:12.239Z,100118.38
2023-04-26T19:59:38.884Z,100113.72
2023-04-26T20:02:05.813Z,100117.44
2023-04-26T20:04:32.578Z,100123.09
2023-04-26T20:06:59.274Z,100122.28
2023-04-26T20:09:26.028Z,100123.41
2023-04-26T20:11:52.675Z,100115.63
2023-04-26T20:14:19.292Z,100124.97
2023-04-26T20:16:46.033Z,100135.41
2023-04-26T20:19:13.165Z,100136.06
2023-04-26T20:21:39.793Z,100133.59
2023-04-26T20:24:06.871Z,100139.59
2023-04-26T20:26:33.604Z,100140.66
2023-04-26T20:29:00.282Z,100133.72
2023-04-26T20:31:26.954Z,100140.03
2023-04-26T20:33:53.740Z,100144.31
2023-04-26T20:36:22.924Z,100139.25
2023-04-26T20:38:49.583Z,100146.97
2023-04-26T20:41:16.215Z,100141.16
2023-04-26T20:43:42.834Z,100153.13
2023-04-26T20:46:09.552Z,100147.88
2023-04-26T20:48:36.286Z,100153.91
2023-04-26T20:51:02.982Z,100154.88
2023-04-26T20:53:29.742Z,100151.66
2023-04-26T20:55:56.573Z,100157.25
2023-04-26T20:58:23.189Z,100150.38
2023-04-26T21:00:50.493Z,100153.84
2023-04-26T21:03:17.430Z,100153.53
2023-04-26T21:05:44.172Z,100156.38
2023-04-26T21:08:10.868Z,100156.50
2023-04-26T21:10:37.526Z,100162.53
2023-04-26T21:13:04.253Z,100165.00
2023-04-26T21:15:30.906Z,100163.31
2023-04-26T21:17:57.618Z,100169.41
2023-04-26T21:20:24.304Z,100166.69
2023-04-26T21:22:50.901Z,100172.84
2023-04-26T21:25:17.552Z,100179.81
2023-04-26T21:27:44.182Z,100178.94
2023-04-26T21:30:11.559Z,100181.59
2023-04-26T21:32:38.385Z,100179.88
2023-04-26T21:35:05.367Z,100173.00
2023-04-26T21:37:31.907Z,100181.78
2023-04-26T21:39:58.776Z,100176.88
2023-04-26T21:42:25.434Z,100176.00
2023-04-26T21:44:52.390Z,100178.59
2023-04-26T21:47:19.341Z,100182.19
2023-04-26T21:49:46.031Z,100182.28
2023-04-26T21:52:12.667Z,100184.84
2023-04-26T21:54:39.482Z,100184.38
2023-04-26T21:57:06.116Z,100189.56
2023-04-26T21:59:33.485Z,100189.63
2023-04-26T22:02:00.276Z,100179.94
2023-04-26T22:04:27.172Z,100185.44
2023-04-26T22:06:53.802Z,100185.63
2023-04-26T22:09:20.877Z,100187.22
2023-04-26T22:11:47.638Z,100188.06
2023-04-26T22:14:14.277Z,100183.66
2023-04-26T22:16:40.925Z,100189.81
2023-04-26T22:19:10.551Z,100189.63
2023-04-26T22:21:37.577Z,100190.59
2023-04-26T22:24:04.354Z,100206.28
2023-04-26T22:26:30.987Z,100203.69
2023-04-26T22:28:57.775Z,100215.00
2023-04-26T22:31:25.288Z,100214.97
2023-04-26T22:33:52.066Z,100221.06
2023-04-26T22:36:18.760Z,100228.91
2023-04-26T22:38:45.418Z,100228.03
2023-04-26T22:41:12.003Z,100229.72
2023-04-26T22:43:38.637Z,100229.72
2023-04-26T22:46:05.365Z,100229.78
2023-04-26T22:48:32.039Z,100226.38
2023-04-26T22:50:58.633Z,100232.47
2023-04-26T22:53:25.309Z,100232.47
2023-04-26T22:55:51.956Z,100226.41
2023-04-26T22:58:18.659Z,100233.22
2023-04-26T23:00:45.248Z,100240.34
2023-04-26T23:03:11.969Z,100237.66
2023-04-26T23:05:38.792Z,100239.50
2023-04-26T23:08:05.649Z,100234.28
2023-04-26T23:10:32.284Z,100248.25
2023-04-26T23:12:58.885Z,100248.16
2023-04-26T23:15:25.602Z,100248.25
2023-04-26T23:17:52.236Z,100256.06
2023-04-26T23:20:19.088Z,100247.41
2023-04-26T23:22:45.724Z,100253.47
2023-04-26T23:25:12.409Z,100256.94
2023-04-26T23:27:39.120Z,100258.69
2023-04-26T23:30:06.811Z,100249.13
2023-04-26T23:32:33.581Z,100255.19
2023-04-26T23:35:00.276Z,100258.72
2023-04-26T23:37:26.915Z,100263.97
2023-04-26T23:39:53.640Z,100264.06
2023-04-26T23:42:20.298Z,100268.44
2023-04-26T23:44:46.942Z,100269.31
2023-04-26T23:47:13.601Z,100271.03
2023-04-26T23:49:40.189Z,100260.63
2023-04-26T23:52:06.869Z,100262.41
2023-04-26T23:54:33.612Z,100258.91
2023-04-26T23:57:00.224Z,100260.69
2023-04-26T23:59:26.839Z,100260.66
